Carrollton, Michigan
Current Conditions -  °F | °C
As of 5:15 PM on Thursday 23 Oct 2014 (Local Time) from KHYX Reporting Station
Clear Clear  
Wind Chill: 54°   Ceiling: Unl
Heat Index: 54°   Visibility: 10mi
Dew Point: 34°   Wind: 3mph
Humidity: 47%   Direction: 240°WSW
Pressure: 30.14"   Gusts: NA
Location:  43.45°N, 83.93°W
Report Text: KHYX 232115Z AUTO 24003KT 10SM CLR 12/01 A3014 RMK AO2
Loading
Personal Weather Stations






























Interactive Weather Map
Tropical Storm Tracking
New forecast layout! Learn more

10-Day Weather Forecast

Advertisements
Track Severe Weather on mobile